No data was retrieved for https://query.yahooapis.com/v1/public/yql?q=select+%2A+from+weather.forecast+where+woeid%3D626045&format=xml&u=c


Notice: Undefined index: in /var/www/html/weather28/wsIconUrl.php on line 132

Warning: A non-numeric value encountered in /var/www/html/weather28/wsIconUrl.php on line 140

Warning: A non-numeric value encountered in /var/www/html/weather28/wsIconUrl.php on line 141

Warning: A non-numeric value encountered in /var/www/html/weather28/wsFunctions.php on line 312

Warning: A non-numeric value encountered in /var/www/html/weather28/wsFunctions.php on line 312

Warning: A non-numeric value encountered in /var/www/html/weather28/wsFunctions.php on line 312

Warning: A non-numeric value encountered in /var/www/html/weather28/wsDataLoad.php on line 210
- Bienvenue sur la Station Météo " Les Brantus " située au Point du Jour, Saint-Nazaire, 44600 -
Pas de vigilance météorologique particulière.    Il n'y a aucun avertissement

Météo Saint-Nazaire.



Visitez nos sites météorologiques autres:

Template documentation
and downloads

And another site



Rapports METAR proximité


Warning: A non-numeric value encountered in /var/www/html/weather28/metar/metarDisplay.php on line 166

Warning: A non-numeric value encountered in /var/www/html/weather28/metar/metarDisplay.php on line 166
   
LFRZ - Saint-Nazaire, France
Mise à jour: 19-02-2020 15:00
Nuageux  
Nuageux  
   Vent: OSO 27.8 km/h
Vent: OSO 27.8 km/h
Température: 13°C
Point de rosée: 10°C
Humidité: 82%
Baromètre: 1027 hPa
Nuageux: Nuageux
visibilité: More than 10 km
Détails des nuages: Nuageux 1800 ft,
Nuageux 2500 ft
LFRZ 191400Z AUTO 24015KT 9999 BKN018 OVC025 13/10 Q1027 TEMPO 4000 -RA SCT007 BKN012 BKN020
LFPG - Paris, France
Mise à jour: 19-02-2020 15:00
Pluie faible, Nuageux  
Pluie faible, Nuageux  
   Vent: Ouest 24.1 km/h
Vent: Ouest 24.1 km/h
Température: 9°C
éolien: 6°C
Point de rosée: 2°C
Humidité: 62%
Baromètre: 1025 hPa
Nuageux: Nuageux
visibilité: More than 10 km
Détails des nuages: Partiellement nuageux 3300 ft,
Nuageux 4500 ft,
Nuageux 11000 ft
LFPG 191400Z 26013KT 9999 -RA SCT033 BKN045 BKN110 09/02 Q1025 NOSIG
LFQQ - Lille, France
Mise à jour: 19-02-2020 15:00
Nuageux  
Nuageux  
   Vent: SO 20.4 km/h
Vent: SO 20.4 km/h
Température: 9°C
éolien: 6°C
Point de rosée: 2°C
Humidité: 62%
Baromètre: 1022 hPa
Nuageux: Nuageux
visibilité: More than 10 km
Détails des nuages: Partiellement nuageux 3900 ft,
Partiellement nuageux 4600 ft,
Nuageux 5400 ft
LFQQ 191400Z AUTO 23011KT 9999 SCT039 SCT046 BKN054 09/02 Q1022 NOSIG
BIRK - Reykjavik, Islande
Mise à jour: 19-02-2020 15:00
Nuageux  
Nuageux  
   Vent: NNE 22.2 km/h
Vent: NNE 22.2 km/h
Température: 1°C
éolien: -4°C
Point de rosée: -6°C
Humidité: 60%
Baromètre: 976 hPa
Nuageux: Nuageux
visibilité: More than 10 km
Détails des nuages: Peu de nuages 4500 ft,
Nuageux 6000 ft,
Nuageux 7000 ft
BIRK 191400Z 03012KT 9999 FEW045 BKN060 OVC070 01/M06 Q0976 R13/390155
ENGM - Oslo, Norvège
Mise à jour: 19-02-2020 14:50
Claires  
Claires  
   Vent: Sud 7.4 km/h
Vent: Sud 7.4 km/h
Température: 7°C
éolien: 6°C
Point de rosée: -5°C
Humidité: 42%
Baromètre: 1000 hPa
visibilité: More than 10 km
Détails des nuages: Claires
ENGM 191350Z 17004KT CAVOK 07/M05 Q1000 NOSIG
EGLL - Londres, Royaume-Uni
Mise à jour: 19-02-2020 14:50
Pluie faible, Nuageux  
Pluie faible, Nuageux  
   Vent: SSO 14.8 km/h<br />Gust to 14.8 km/h
Vent: SSO 14.8 km/h
Gust to 14.8 km/h
Température: 7°C
éolien: 4°C
Point de rosée: 5°C
Humidité: 87%
Baromètre: 1020 hPa
Nuageux: Nuageux
visibilité: More than 10 km
Détails des nuages: Partiellement nuageux 3500 ft,
Nuageux 4100 ft
EGLL 191350Z AUTO 21008G18KT 9999 -RA SCT035 BKN041 07/05 Q1020 NOSIG
EDDT - Berlin, Allemagne *
Mise à jour: 19-02-2020 14:50
Peu de nuages  
Peu de nuages  
   Vent: Ouest 29.6 km/h
Vent: Ouest 29.6 km/h
Température: 7°C
éolien: 3°C
Point de rosée: 2°C
Humidité: 71%
Baromètre: 1012 hPa
Nuageux: Peu de nuages
visibilité: More than 10 km
Détails des nuages: Peu de nuages 2000 ft
EDDT 191350Z 27016KT 9999 FEW020CB 07/02 Q1012 TEMPO 28020G30KT 4000 SHRAGS BKN013CB
UUEE - Moscou, Russie
Mise à jour: 19-02-2020 15:00
Nuageux  
Nuageux  
   Vent: OSO 25.2 km/h
Vent: OSO 25.2 km/h
Température: 4°C
éolien: -1°C
Point de rosée: -1°C
Humidité: 70%
Baromètre: 1008 hPa
Nuageux: Nuageux
visibilité: More than 10 km
Détails des nuages: Nuageux 2900 ft
UUEE 191400Z 25007MPS 9999 OVC029 04/M01 Q1008 R24L/CLRD62 R24R/190057 NOSIG
LEMD - Madrid, Espagne
Mise à jour: 19-02-2020 15:00
Claires  
Claires  
   Vent: varie 3.7 km/h
Vent: varie 3.7 km/h
Température: 14°C
Point de rosée: 1°C
Humidité: 41%
Baromètre: 1030 hPa
visibilité: More than 10 km
Détails des nuages: Claires
LEMD 191400Z VRB02KT CAVOK 14/01 Q1030 NOSIG
LIRF - Rome, Italie
Mise à jour: 19-02-2020 14:50
Peu de nuages  
Peu de nuages  
   Vent: Ouest 16.7 km/h
Vent: Ouest 16.7 km/h
Température: 14°C
Point de rosée: 8°C
Humidité: 67%
Baromètre: 1018 hPa
Nuageux: Peu de nuages
visibilité: More than 10 km
Détails des nuages: Peu de nuages 3000 ft
LIRF 191350Z 26009KT 230V300 9999 FEW030 14/08 Q1018 NOSIG
  

Script développé par  Saratoga-weather.org Adapté pour le modèle par  Weerstation Leuven

Vous trouverez notre info météo Également à:

WeatherCloud

Weather Underground

AWEKAS

Équipement que nous utilisons:

Programme Météo
Meteohub

Meteohub